Weather at Las Obas Airport

Public forecast

Using degrees Celsius for public forecast. Weather courtesy of forecast.io.

Closest aviation weather report (METAR) to Las Obas Airport

Closest report is Abel Santamaria Airport, 60.3 nm (111.7 km) NNW. Retrieved 2021/06/23 02:50 UTC (34 minutes ago):

MUSC 230250Z 31003KT 9000 FEW020 BKN060 23/22 Q1019

Closest aviation forecast (TAF) to Las Obas Airport

Forecast is more than 12 hours old.

Closest forecast is Abel Santamaria Airport, 60.3 nm (111.7 km) NNW. Retrieved 2021/01/30 18:00 UTC (5 months ago):

TAF MUSC 301700Z 3018/3118 10015KT 9000 SCT030 BECMG 3101/3103 VRB03KT BECMG 3115/3117 13010KT